sensor_id;sensor_type;location;lat;lon;timestamp;P1;durP1;ratioP1;P2;durP2;ratioP2
3427;SDS011;1727;42.624;23.406;2023-03-05T00:00:16;27.97;;;18.70;;
3427;SDS011;1727;42.624;23.406;2023-03-05T00:02:44;29.00;;;19.90;;
3427;SDS011;1727;42.624;23.406;2023-03-05T00:05:12;31.20;;;18.30;;
3427;SDS011;1727;42.624;23.406;2023-03-05T00:07:39;36.57;;;20.60;;
3427;SDS011;1727;42.624;23.406;2023-03-05T00:10:06;30.87;;;18.97;;
3427;SDS011;1727;42.624;23.406;2023-03-05T00:12:33;25.90;;;17.83;;
3427;SDS011;1727;42.624;23.406;2023-03-05T00:15:00;32.17;;;17.23;;
3427;SDS011;1727;42.624;23.406;2023-03-05T00:17:27;24.83;;;17.13;;
3427;SDS011;1727;42.624;23.406;2023-03-05T00:19:54;27.33;;;18.07;;
3427;SDS011;1727;42.624;23.406;2023-03-05T00:22:24;27.77;;;17.70;;
3427;SDS011;1727;42.624;23.406;2023-03-05T00:24:51;31.57;;;18.83;;
3427;SDS011;1727;42.624;23.406;2023-03-05T00:27:18;27.90;;;18.43;;
3427;SDS011;1727;42.624;23.406;2023-03-05T00:29:45;31.33;;;19.50;;
3427;SDS011;1727;42.624;23.406;2023-03-05T00:32:12;29.73;;;18.70;;
3427;SDS011;1727;42.624;23.406;2023-03-05T00:34:38;31.37;;;19.53;;
3427;SDS011;1727;42.624;23.406;2023-03-05T00:37:05;29.13;;;18.80;;
3427;SDS011;1727;42.624;23.406;2023-03-05T00:39:33;37.80;;;21.40;;
3427;SDS011;1727;42.624;23.406;2023-03-05T00:42:00;35.30;;;21.10;;
3427;SDS011;1727;42.624;23.406;2023-03-05T00:44:27;37.53;;;22.00;;
3427;SDS011;1727;42.624;23.406;2023-03-05T00:46:54;38.10;;;21.27;;
3427;SDS011;1727;42.624;23.406;2023-03-05T00:49:21;34.03;;;20.27;;
3427;SDS011;1727;42.624;23.406;2023-03-05T00:51:47;34.80;;;20.73;;
3427;SDS011;1727;42.624;23.406;2023-03-05T00:54:14;34.97;;;21.53;;
3427;SDS011;1727;42.624;23.406;2023-03-05T00:56:42;32.07;;;21.20;;
3427;SDS011;1727;42.624;23.406;2023-03-05T00:59:09;35.20;;;23.23;;
3427;SDS011;1727;42.624;23.406;2023-03-05T01:01:36;33.50;;;20.87;;
3427;SDS011;1727;42.624;23.406;2023-03-05T01:04:03;36.73;;;21.07;;
3427;SDS011;1727;42.624;23.406;2023-03-05T01:06:29;34.30;;;22.20;;
3427;SDS011;1727;42.624;23.406;2023-03-05T01:08:56;33.17;;;22.47;;
3427;SDS011;1727;42.624;23.406;2023-03-05T01:11:23;30.47;;;21.77;;
3427;SDS011;1727;42.624;23.406;2023-03-05T01:13:52;31.47;;;20.37;;
3427;SDS011;1727;42.624;23.406;2023-03-05T01:16:19;33.40;;;20.60;;
3427;SDS011;1727;42.624;23.406;2023-03-05T01:18:45;35.40;;;18.80;;
3427;SDS011;1727;42.624;23.406;2023-03-05T01:21:12;31.03;;;20.30;;
3427;SDS011;1727;42.624;23.406;2023-03-05T01:23:39;29.80;;;18.97;;
3427;SDS011;1727;42.624;23.406;2023-03-05T01:26:05;30.97;;;19.77;;
3427;SDS011;1727;42.624;23.406;2023-03-05T01:28:33;29.13;;;19.57;;
3427;SDS011;1727;42.624;23.406;2023-03-05T01:31:06;30.20;;;19.73;;
3427;SDS011;1727;42.624;23.406;2023-03-05T01:33:34;27.80;;;18.77;;
3427;SDS011;1727;42.624;23.406;2023-03-05T01:36:01;32.13;;;20.77;;
3427;SDS011;1727;42.624;23.406;2023-03-05T01:38:27;31.80;;;20.23;;
3427;SDS011;1727;42.624;23.406;2023-03-05T01:40:54;30.50;;;18.30;;
3427;SDS011;1727;42.624;23.406;2023-03-05T01:43:23;38.20;;;21.70;;
3427;SDS011;1727;42.624;23.406;2023-03-05T01:48:55;35.20;;;19.23;;
3427;SDS011;1727;42.624;23.406;2023-03-05T01:51:28;30.43;;;19.73;;
3427;SDS011;1727;42.624;23.406;2023-03-05T01:53:57;34.67;;;20.33;;
3427;SDS011;1727;42.624;23.406;2023-03-05T01:56:25;30.30;;;20.30;;
3427;SDS011;1727;42.624;23.406;2023-03-05T01:58:54;36.70;;;20.63;;
3427;SDS011;1727;42.624;23.406;2023-03-05T02:01:29;35.50;;;21.67;;
3427;SDS011;1727;42.624;23.406;2023-03-05T02:03:57;37.43;;;20.63;;
3427;SDS011;1727;42.624;23.406;2023-03-05T02:06:24;34.23;;;19.57;;
3427;SDS011;1727;42.624;23.406;2023-03-05T02:08:52;35.13;;;21.00;;
3427;SDS011;1727;42.624;23.406;2023-03-05T02:11:18;35.57;;;20.23;;
3427;SDS011;1727;42.624;23.406;2023-03-05T02:13:45;32.80;;;20.33;;
3427;SDS011;1727;42.624;23.406;2023-03-05T02:16:12;31.50;;;19.87;;
3427;SDS011;1727;42.624;23.406;2023-03-05T02:18:40;35.07;;;19.73;;
3427;SDS011;1727;42.624;23.406;2023-03-05T02:21:09;34.97;;;20.47;;
3427;SDS011;1727;42.624;23.406;2023-03-05T02:23:37;33.50;;;20.80;;
3427;SDS011;1727;42.624;23.406;2023-03-05T02:26:05;28.93;;;19.70;;
3427;SDS011;1727;42.624;23.406;2023-03-05T02:28:34;35.37;;;20.67;;
3427;SDS011;1727;42.624;23.406;2023-03-05T02:31:08;42.60;;;22.97;;
3427;SDS011;1727;42.624;23.406;2023-03-05T02:33:35;29.87;;;19.10;;
3427;SDS011;1727;42.624;23.406;2023-03-05T02:36:03;31.30;;;19.37;;
3427;SDS011;1727;42.624;23.406;2023-03-05T02:38:31;31.80;;;20.47;;
3427;SDS011;1727;42.624;23.406;2023-03-05T02:40:58;33.87;;;19.10;;
3427;SDS011;1727;42.624;23.406;2023-03-05T02:43:25;30.07;;;18.77;;
3427;SDS011;1727;42.624;23.406;2023-03-05T02:45:52;36.10;;;20.67;;
3427;SDS011;1727;42.624;23.406;2023-03-05T02:48:19;34.97;;;19.10;;
3427;SDS011;1727;42.624;23.406;2023-03-05T02:50:46;34.83;;;20.57;;
3427;SDS011;1727;42.624;23.406;2023-03-05T02:53:13;32.63;;;20.63;;
3427;SDS011;1727;42.624;23.406;2023-03-05T02:55:41;31.00;;;20.63;;
3427;SDS011;1727;42.624;23.406;2023-03-05T02:58:12;38.63;;;21.27;;
3427;SDS011;1727;42.624;23.406;2023-03-05T03:00:38;29.43;;;19.70;;
3427;SDS011;1727;42.624;23.406;2023-03-05T03:03:05;30.20;;;18.37;;
3427;SDS011;1727;42.624;23.406;2023-03-05T03:05:32;32.50;;;20.57;;
3427;SDS011;1727;42.624;23.406;2023-03-05T03:08:00;36.33;;;21.03;;
3427;SDS011;1727;42.624;23.406;2023-03-05T03:10:27;31.57;;;18.73;;
3427;SDS011;1727;42.624;23.406;2023-03-05T03:12:55;34.27;;;19.60;;
3427;SDS011;1727;42.624;23.406;2023-03-05T03:15:22;35.77;;;20.03;;
3427;SDS011;1727;42.624;23.406;2023-03-05T03:17:49;31.50;;;19.50;;
3427;SDS011;1727;42.624;23.406;2023-03-05T03:20:16;30.90;;;19.97;;
3427;SDS011;1727;42.624;23.406;2023-03-05T03:22:44;33.83;;;19.87;;
3427;SDS011;1727;42.624;23.406;2023-03-05T03:25:12;34.67;;;18.87;;
3427;SDS011;1727;42.624;23.406;2023-03-05T03:27:41;28.33;;;18.43;;
3427;SDS011;1727;42.624;23.406;2023-03-05T03:30:10;31.60;;;18.50;;
3427;SDS011;1727;42.624;23.406;2023-03-05T03:32:38;31.13;;;17.73;;
3427;SDS011;1727;42.624;23.406;2023-03-05T03:35:05;31.60;;;17.73;;
3427;SDS011;1727;42.624;23.406;2023-03-05T03:37:32;32.93;;;19.50;;
3427;SDS011;1727;42.624;23.406;2023-03-05T03:39:59;31.50;;;17.90;;
3427;SDS011;1727;42.624;23.406;2023-03-05T03:42:26;30.50;;;16.67;;
3427;SDS011;1727;42.624;23.406;2023-03-05T03:44:53;30.03;;;17.10;;
3427;SDS011;1727;42.624;23.406;2023-03-05T03:47:21;32.80;;;17.73;;
3427;SDS011;1727;42.624;23.406;2023-03-05T03:49:47;32.83;;;18.47;;
3427;SDS011;1727;42.624;23.406;2023-03-05T03:52:14;34.87;;;18.13;;
3427;SDS011;1727;42.624;23.406;2023-03-05T03:54:41;32.17;;;18.20;;
3427;SDS011;1727;42.624;23.406;2023-03-05T03:57:08;36.20;;;18.90;;
3427;SDS011;1727;42.624;23.406;2023-03-05T03:59:35;29.60;;;18.10;;
3427;SDS011;1727;42.624;23.406;2023-03-05T04:02:01;32.60;;;18.40;;
3427;SDS011;1727;42.624;23.406;2023-03-05T04:04:29;29.93;;;18.80;;
3427;SDS011;1727;42.624;23.406;2023-03-05T04:06:56;28.73;;;17.20;;
3427;SDS011;1727;42.624;23.406;2023-03-05T04:09:23;37.13;;;18.87;;
3427;SDS011;1727;42.624;23.406;2023-03-05T04:11:50;32.40;;;20.00;;
3427;SDS011;1727;42.624;23.406;2023-03-05T04:14:16;33.87;;;19.13;;
3427;SDS011;1727;42.624;23.406;2023-03-05T04:16:43;36.27;;;19.17;;
3427;SDS011;1727;42.624;23.406;2023-03-05T04:19:10;37.23;;;18.30;;
3427;SDS011;1727;42.624;23.406;2023-03-05T04:21:38;40.23;;;20.80;;
3427;SDS011;1727;42.624;23.406;2023-03-05T04:24:05;26.20;;;16.87;;
3427;SDS011;1727;42.624;23.406;2023-03-05T04:26:33;32.57;;;19.93;;
3427;SDS011;1727;42.624;23.406;2023-03-05T04:29:00;36.10;;;19.63;;
3427;SDS011;1727;42.624;23.406;2023-03-05T04:31:27;40.17;;;19.87;;
3427;SDS011;1727;42.624;23.406;2023-03-05T04:33:53;37.30;;;20.10;;
3427;SDS011;1727;42.624;23.406;2023-03-05T04:36:20;35.63;;;20.23;;
3427;SDS011;1727;42.624;23.406;2023-03-05T04:38:48;32.37;;;17.80;;
3427;SDS011;1727;42.624;23.406;2023-03-05T04:41:15;39.37;;;19.00;;
3427;SDS011;1727;42.624;23.406;2023-03-05T04:43:42;32.77;;;17.17;;
3427;SDS011;1727;42.624;23.406;2023-03-05T04:46:09;37.77;;;19.47;;
3427;SDS011;1727;42.624;23.406;2023-03-05T04:48:35;33.73;;;20.40;;
3427;SDS011;1727;42.624;23.406;2023-03-05T04:51:02;37.63;;;18.50;;
3427;SDS011;1727;42.624;23.406;2023-03-05T04:53:29;34.40;;;20.60;;
3427;SDS011;1727;42.624;23.406;2023-03-05T04:55:57;42.57;;;20.67;;
3427;SDS011;1727;42.624;23.406;2023-03-05T04:58:25;38.37;;;21.40;;
3427;SDS011;1727;42.624;23.406;2023-03-05T05:00:52;32.90;;;21.17;;
3427;SDS011;1727;42.624;23.406;2023-03-05T05:03:19;41.43;;;19.90;;
3427;SDS011;1727;42.624;23.406;2023-03-05T05:05:52;35.30;;;19.40;;
3427;SDS011;1727;42.624;23.406;2023-03-05T05:08:20;31.23;;;18.37;;
3427;SDS011;1727;42.624;23.406;2023-03-05T05:10:53;34.27;;;17.90;;
3427;SDS011;1727;42.624;23.406;2023-03-05T05:13:23;36.90;;;20.43;;
3427;SDS011;1727;42.624;23.406;2023-03-05T05:15:50;29.60;;;16.80;;
3427;SDS011;1727;42.624;23.406;2023-03-05T05:18:16;33.77;;;18.70;;
3427;SDS011;1727;42.624;23.406;2023-03-05T05:20:43;29.63;;;17.30;;
3427;SDS011;1727;42.624;23.406;2023-03-05T05:23:10;28.07;;;17.83;;
3427;SDS011;1727;42.624;23.406;2023-03-05T05:25:37;35.97;;;17.70;;
3427;SDS011;1727;42.624;23.406;2023-03-05T05:28:03;33.63;;;18.70;;
3427;SDS011;1727;42.624;23.406;2023-03-05T05:30:32;27.87;;;17.23;;
3427;SDS011;1727;42.624;23.406;2023-03-05T05:32:59;29.73;;;16.77;;
3427;SDS011;1727;42.624;23.406;2023-03-05T05:35:25;27.60;;;17.23;;
3427;SDS011;1727;42.624;23.406;2023-03-05T05:37:52;30.03;;;16.10;;
3427;SDS011;1727;42.624;23.406;2023-03-05T05:40:19;30.90;;;17.67;;
3427;SDS011;1727;42.624;23.406;2023-03-05T05:42:46;36.07;;;18.73;;
3427;SDS011;1727;42.624;23.406;2023-03-05T05:45:13;32.50;;;17.07;;
3427;SDS011;1727;42.624;23.406;2023-03-05T05:47:41;24.33;;;13.47;;
3427;SDS011;1727;42.624;23.406;2023-03-05T05:50:09;28.63;;;15.00;;
3427;SDS011;1727;42.624;23.406;2023-03-05T05:52:37;35.93;;;17.53;;
3427;SDS011;1727;42.624;23.406;2023-03-05T05:55:04;31.27;;;17.50;;
3427;SDS011;1727;42.624;23.406;2023-03-05T05:57:32;24.77;;;15.00;;
3427;SDS011;1727;42.624;23.406;2023-03-05T05:59:59;30.83;;;17.03;;
3427;SDS011;1727;42.624;23.406;2023-03-05T06:02:26;33.23;;;18.57;;
3427;SDS011;1727;42.624;23.406;2023-03-05T06:04:55;31.03;;;15.53;;
3427;SDS011;1727;42.624;23.406;2023-03-05T06:07:22;24.73;;;15.30;;
3427;SDS011;1727;42.624;23.406;2023-03-05T06:09:48;29.57;;;15.60;;
3427;SDS011;1727;42.624;23.406;2023-03-05T06:12:15;23.47;;;15.90;;
3427;SDS011;1727;42.624;23.406;2023-03-05T06:14:42;21.00;;;12.80;;
3427;SDS011;1727;42.624;23.406;2023-03-05T06:17:09;26.83;;;12.90;;
3427;SDS011;1727;42.624;23.406;2023-03-05T06:19:36;29.53;;;16.60;;
3427;SDS011;1727;42.624;23.406;2023-03-05T06:22:04;22.60;;;13.20;;
3427;SDS011;1727;42.624;23.406;2023-03-05T06:24:31;28.90;;;16.33;;
3427;SDS011;1727;42.624;23.406;2023-03-05T06:26:57;27.93;;;12.70;;
3427;SDS011;1727;42.624;23.406;2023-03-05T06:29:24;22.17;;;14.27;;
3427;SDS011;1727;42.624;23.406;2023-03-05T06:31:51;24.53;;;12.87;;
3427;SDS011;1727;42.624;23.406;2023-03-05T06:34:17;24.20;;;13.27;;
3427;SDS011;1727;42.624;23.406;2023-03-05T06:36:44;24.60;;;13.87;;
3427;SDS011;1727;42.624;23.406;2023-03-05T06:39:12;24.73;;;13.50;;
3427;SDS011;1727;42.624;23.406;2023-03-05T06:41:39;21.43;;;12.03;;
3427;SDS011;1727;42.624;23.406;2023-03-05T06:44:06;21.97;;;13.50;;
3427;SDS011;1727;42.624;23.406;2023-03-05T06:46:33;27.50;;;15.40;;
3427;SDS011;1727;42.624;23.406;2023-03-05T06:49:03;30.83;;;12.60;;
3427;SDS011;1727;42.624;23.406;2023-03-05T06:51:31;23.10;;;13.23;;
3427;SDS011;1727;42.624;23.406;2023-03-05T06:54:00;20.90;;;12.57;;
3427;SDS011;1727;42.624;23.406;2023-03-05T06:56:31;24.57;;;15.27;;
3427;SDS011;1727;42.624;23.406;2023-03-05T06:59:00;23.80;;;14.80;;
3427;SDS011;1727;42.624;23.406;2023-03-05T07:01:26;27.30;;;15.27;;
3427;SDS011;1727;42.624;23.406;2023-03-05T07:03:54;24.87;;;14.70;;
3427;SDS011;1727;42.624;23.406;2023-03-05T07:06:22;24.13;;;14.90;;
3427;SDS011;1727;42.624;23.406;2023-03-05T07:08:53;24.07;;;14.47;;
3427;SDS011;1727;42.624;23.406;2023-03-05T07:11:22;28.67;;;16.10;;
3427;SDS011;1727;42.624;23.406;2023-03-05T07:13:51;31.37;;;16.70;;
3427;SDS011;1727;42.624;23.406;2023-03-05T07:16:18;19.60;;;13.80;;
3427;SDS011;1727;42.624;23.406;2023-03-05T07:18:47;18.73;;;12.80;;
3427;SDS011;1727;42.624;23.406;2023-03-05T07:21:15;26.00;;;14.07;;
3427;SDS011;1727;42.624;23.406;2023-03-05T07:23:44;29.73;;;18.23;;
3427;SDS011;1727;42.624;23.406;2023-03-05T07:26:11;33.00;;;18.67;;
3427;SDS011;1727;42.624;23.406;2023-03-05T07:28:39;31.00;;;16.50;;
3427;SDS011;1727;42.624;23.406;2023-03-05T07:31:09;38.73;;;14.87;;
3427;SDS011;1727;42.624;23.406;2023-03-05T07:33:38;24.20;;;13.60;;
3427;SDS011;1727;42.624;23.406;2023-03-05T07:36:06;26.50;;;14.50;;
3427;SDS011;1727;42.624;23.406;2023-03-05T07:38:33;27.63;;;16.07;;
3427;SDS011;1727;42.624;23.406;2023-03-05T07:41:00;27.90;;;16.30;;
3427;SDS011;1727;42.624;23.406;2023-03-05T07:43:28;28.17;;;16.10;;
3427;SDS011;1727;42.624;23.406;2023-03-05T07:45:55;28.33;;;17.17;;
3427;SDS011;1727;42.624;23.406;2023-03-05T07:48:23;31.87;;;17.00;;
3427;SDS011;1727;42.624;23.406;2023-03-05T07:50:58;30.07;;;17.23;;
3427;SDS011;1727;42.624;23.406;2023-03-05T07:53:26;26.03;;;16.67;;
3427;SDS011;1727;42.624;23.406;2023-03-05T07:55:52;29.30;;;17.50;;
3427;SDS011;1727;42.624;23.406;2023-03-05T07:58:19;36.53;;;23.43;;
3427;SDS011;1727;42.624;23.406;2023-03-05T08:00:46;32.03;;;20.00;;
3427;SDS011;1727;42.624;23.406;2023-03-05T08:03:13;30.30;;;17.87;;
3427;SDS011;1727;42.624;23.406;2023-03-05T08:05:41;32.43;;;21.30;;
3427;SDS011;1727;42.624;23.406;2023-03-05T08:08:08;39.07;;;23.40;;
3427;SDS011;1727;42.624;23.406;2023-03-05T08:10:35;32.87;;;19.67;;
3427;SDS011;1727;42.624;23.406;2023-03-05T08:13:03;34.93;;;19.57;;
3427;SDS011;1727;42.624;23.406;2023-03-05T08:15:30;28.37;;;17.70;;
3427;SDS011;1727;42.624;23.406;2023-03-05T08:17:57;34.00;;;21.20;;
3427;SDS011;1727;42.624;23.406;2023-03-05T08:20:24;38.67;;;22.10;;
3427;SDS011;1727;42.624;23.406;2023-03-05T08:22:53;41.93;;;20.23;;
3427;SDS011;1727;42.624;23.406;2023-03-05T08:25:20;29.53;;;18.60;;
3427;SDS011;1727;42.624;23.406;2023-03-05T08:27:47;33.00;;;19.10;;
3427;SDS011;1727;42.624;23.406;2023-03-05T08:30:14;29.77;;;19.13;;
3427;SDS011;1727;42.624;23.406;2023-03-05T08:32:43;37.00;;;21.73;;
3427;SDS011;1727;42.624;23.406;2023-03-05T08:35:10;34.93;;;20.50;;
3427;SDS011;1727;42.624;23.406;2023-03-05T08:37:37;37.27;;;20.70;;
3427;SDS011;1727;42.624;23.406;2023-03-05T08:40:07;37.63;;;21.40;;
3427;SDS011;1727;42.624;23.406;2023-03-05T08:42:35;33.10;;;19.03;;
3427;SDS011;1727;42.624;23.406;2023-03-05T08:45:02;35.03;;;19.63;;
3427;SDS011;1727;42.624;23.406;2023-03-05T08:47:29;31.47;;;18.67;;
3427;SDS011;1727;42.624;23.406;2023-03-05T08:49:55;32.50;;;18.37;;
3427;SDS011;1727;42.624;23.406;2023-03-05T08:52:22;39.77;;;20.63;;
3427;SDS011;1727;42.624;23.406;2023-03-05T08:54:51;31.20;;;17.63;;
3427;SDS011;1727;42.624;23.406;2023-03-05T08:57:19;39.57;;;19.20;;
3427;SDS011;1727;42.624;23.406;2023-03-05T08:59:46;38.50;;;19.43;;
3427;SDS011;1727;42.624;23.406;2023-03-05T09:02:13;38.87;;;18.80;;
3427;SDS011;1727;42.624;23.406;2023-03-05T09:04:40;35.60;;;20.40;;
3427;SDS011;1727;42.624;23.406;2023-03-05T09:07:07;31.73;;;19.90;;
3427;SDS011;1727;42.624;23.406;2023-03-05T09:09:33;41.70;;;21.03;;
3427;SDS011;1727;42.624;23.406;2023-03-05T09:12:00;32.83;;;18.90;;
3427;SDS011;1727;42.624;23.406;2023-03-05T09:14:29;27.13;;;17.93;;
3427;SDS011;1727;42.624;23.406;2023-03-05T09:16:56;35.10;;;18.60;;
3427;SDS011;1727;42.624;23.406;2023-03-05T09:19:24;33.93;;;19.13;;
3427;SDS011;1727;42.624;23.406;2023-03-05T09:21:52;31.17;;;18.10;;
3427;SDS011;1727;42.624;23.406;2023-03-05T09:24:19;28.67;;;17.40;;
3427;SDS011;1727;42.624;23.406;2023-03-05T09:26:45;31.07;;;18.17;;
3427;SDS011;1727;42.624;23.406;2023-03-05T09:29:12;34.87;;;18.83;;
3427;SDS011;1727;42.624;23.406;2023-03-05T09:31:40;36.43;;;19.17;;
3427;SDS011;1727;42.624;23.406;2023-03-05T09:34:09;31.20;;;19.77;;
3427;SDS011;1727;42.624;23.406;2023-03-05T09:36:36;34.70;;;18.33;;
3427;SDS011;1727;42.624;23.406;2023-03-05T09:39:03;34.50;;;20.83;;
3427;SDS011;1727;42.624;23.406;2023-03-05T09:41:33;30.07;;;18.87;;
3427;SDS011;1727;42.624;23.406;2023-03-05T09:44:21;26.80;;;15.33;;
3427;SDS011;1727;42.624;23.406;2023-03-05T09:47:02;26.63;;;16.20;;
3427;SDS011;1727;42.624;23.406;2023-03-05T09:49:42;25.07;;;15.50;;
3427;SDS011;1727;42.624;23.406;2023-03-05T09:52:17;29.43;;;18.83;;
3427;SDS011;1727;42.624;23.406;2023-03-05T09:54:47;28.43;;;16.57;;
3427;SDS011;1727;42.624;23.406;2023-03-05T09:57:18;26.30;;;16.57;;
3427;SDS011;1727;42.624;23.406;2023-03-05T09:59:48;30.43;;;18.10;;
3427;SDS011;1727;42.624;23.406;2023-03-05T10:02:22;28.00;;;17.00;;
3427;SDS011;1727;42.624;23.406;2023-03-05T10:04:52;32.03;;;17.17;;
3427;SDS011;1727;42.624;23.406;2023-03-05T10:07:23;37.80;;;19.80;;
3427;SDS011;1727;42.624;23.406;2023-03-05T10:09:54;34.47;;;19.90;;
3427;SDS011;1727;42.624;23.406;2023-03-05T10:12:25;33.43;;;18.60;;
3427;SDS011;1727;42.624;23.406;2023-03-05T10:14:59;28.87;;;16.63;;
3427;SDS011;1727;42.624;23.406;2023-03-05T10:20:38;30.83;;;19.37;;
3427;SDS011;1727;42.624;23.406;2023-03-05T10:23:14;27.83;;;18.93;;
3427;SDS011;1727;42.624;23.406;2023-03-05T10:25:52;28.93;;;18.67;;
3427;SDS011;1727;42.624;23.406;2023-03-05T10:28:27;32.73;;;19.77;;
3427;SDS011;1727;42.624;23.406;2023-03-05T10:31:03;31.40;;;17.03;;
3427;SDS011;1727;42.624;23.406;2023-03-05T10:33:52;34.83;;;19.27;;
3427;SDS011;1727;42.624;23.406;2023-03-05T10:36:30;31.03;;;18.00;;
3427;SDS011;1727;42.624;23.406;2023-03-05T10:39:17;31.93;;;17.80;;
3427;SDS011;1727;42.624;23.406;2023-03-05T10:42:06;27.13;;;17.83;;
3427;SDS011;1727;42.624;23.406;2023-03-05T10:44:43;26.97;;;17.57;;
3427;SDS011;1727;42.624;23.406;2023-03-05T10:47:14;28.80;;;17.90;;
3427;SDS011;1727;42.624;23.406;2023-03-05T10:49:49;29.53;;;17.20;;
3427;SDS011;1727;42.624;23.406;2023-03-05T10:52:17;30.10;;;17.20;;
3427;SDS011;1727;42.624;23.406;2023-03-05T10:54:48;25.80;;;16.90;;
3427;SDS011;1727;42.624;23.406;2023-03-05T10:57:16;23.73;;;15.83;;
3427;SDS011;1727;42.624;23.406;2023-03-05T10:59:46;27.60;;;16.30;;
3427;SDS011;1727;42.624;23.406;2023-03-05T11:02:16;23.40;;;14.93;;
3427;SDS011;1727;42.624;23.406;2023-03-05T11:04:43;18.77;;;13.10;;
3427;SDS011;1727;42.624;23.406;2023-03-05T11:10:02;22.50;;;13.33;;
3427;SDS011;1727;42.624;23.406;2023-03-05T11:12:33;18.93;;;13.37;;
3427;SDS011;1727;42.624;23.406;2023-03-05T11:15:02;23.60;;;14.77;;
3427;SDS011;1727;42.624;23.406;2023-03-05T11:17:32;23.23;;;14.30;;
3427;SDS011;1727;42.624;23.406;2023-03-05T11:20:19;19.43;;;11.83;;
3427;SDS011;1727;42.624;23.406;2023-03-05T11:23:03;18.60;;;13.33;;
3427;SDS011;1727;42.624;23.406;2023-03-05T11:25:32;21.40;;;12.27;;
3427;SDS011;1727;42.624;23.406;2023-03-05T11:28:00;18.00;;;11.43;;
3427;SDS011;1727;42.624;23.406;2023-03-05T11:30:28;15.53;;;11.90;;
3427;SDS011;1727;42.624;23.406;2023-03-05T11:33:06;16.40;;;10.97;;
3427;SDS011;1727;42.624;23.406;2023-03-05T11:35:36;20.40;;;12.33;;
3427;SDS011;1727;42.624;23.406;2023-03-05T11:38:06;20.40;;;13.13;;
3427;SDS011;1727;42.624;23.406;2023-03-05T11:40:42;18.90;;;13.10;;
3427;SDS011;1727;42.624;23.406;2023-03-05T11:43:09;20.27;;;12.20;;
3427;SDS011;1727;42.624;23.406;2023-03-05T11:45:41;23.90;;;14.27;;
3427;SDS011;1727;42.624;23.406;2023-03-05T11:48:11;23.00;;;14.57;;
3427;SDS011;1727;42.624;23.406;2023-03-05T11:50:41;27.73;;;15.97;;
3427;SDS011;1727;42.624;23.406;2023-03-05T11:53:12;23.97;;;14.53;;
3427;SDS011;1727;42.624;23.406;2023-03-05T11:55:44;23.93;;;15.17;;
3427;SDS011;1727;42.624;23.406;2023-03-05T11:58:20;27.03;;;14.70;;
3427;SDS011;1727;42.624;23.406;2023-03-05T12:00:52;22.13;;;15.03;;
3427;SDS011;1727;42.624;23.406;2023-03-05T12:03:20;21.40;;;14.33;;
3427;SDS011;1727;42.624;23.406;2023-03-05T12:05:50;21.70;;;15.20;;
3427;SDS011;1727;42.624;23.406;2023-03-05T12:08:21;26.60;;;15.53;;
3427;SDS011;1727;42.624;23.406;2023-03-05T12:10:53;25.30;;;15.60;;
3427;SDS011;1727;42.624;23.406;2023-03-05T12:13:22;19.60;;;12.63;;
3427;SDS011;1727;42.624;23.406;2023-03-05T12:16:05;23.27;;;12.10;;
3427;SDS011;1727;42.624;23.406;2023-03-05T12:18:43;28.43;;;14.73;;
3427;SDS011;1727;42.624;23.406;2023-03-05T12:21:22;23.50;;;12.27;;
3427;SDS011;1727;42.624;23.406;2023-03-05T12:23:58;18.83;;;11.90;;
3427;SDS011;1727;42.624;23.406;2023-03-05T12:29:26;21.00;;;12.13;;
3427;SDS011;1727;42.624;23.406;2023-03-05T12:31:54;20.07;;;12.97;;
3427;SDS011;1727;42.624;23.406;2023-03-05T12:40:27;18.03;;;13.47;;
3427;SDS011;1727;42.624;23.406;2023-03-05T12:42:55;16.57;;;10.90;;
3427;SDS011;1727;42.624;23.406;2023-03-05T12:45:27;24.90;;;14.20;;
3427;SDS011;1727;42.624;23.406;2023-03-05T12:51:03;20.83;;;12.73;;
3427;SDS011;1727;42.624;23.406;2023-03-05T12:53:29;22.40;;;13.67;;
3427;SDS011;1727;42.624;23.406;2023-03-05T12:55:59;19.40;;;13.90;;
3427;SDS011;1727;42.624;23.406;2023-03-05T12:58:33;22.33;;;14.40;;
3427;SDS011;1727;42.624;23.406;2023-03-05T13:01:06;19.57;;;13.07;;
3427;SDS011;1727;42.624;23.406;2023-03-05T13:03:44;21.57;;;14.87;;
3427;SDS011;1727;42.624;23.406;2023-03-05T13:06:25;20.17;;;13.67;;
3427;SDS011;1727;42.624;23.406;2023-03-05T13:08:57;23.10;;;14.80;;
3427;SDS011;1727;42.624;23.406;2023-03-05T13:11:26;18.83;;;14.70;;
3427;SDS011;1727;42.624;23.406;2023-03-05T13:13:55;19.00;;;12.47;;
3427;SDS011;1727;42.624;23.406;2023-03-05T13:16:23;25.03;;;15.43;;
3427;SDS011;1727;42.624;23.406;2023-03-05T13:18:53;23.33;;;13.23;;
3427;SDS011;1727;42.624;23.406;2023-03-05T13:21:24;28.00;;;16.80;;
3427;SDS011;1727;42.624;23.406;2023-03-05T13:23:52;22.57;;;15.73;;
3427;SDS011;1727;42.624;23.406;2023-03-05T13:26:23;28.13;;;17.43;;
3427;SDS011;1727;42.624;23.406;2023-03-05T13:29:04;27.33;;;17.60;;
3427;SDS011;1727;42.624;23.406;2023-03-05T13:31:32;24.13;;;19.80;;
3427;SDS011;1727;42.624;23.406;2023-03-05T13:34:05;29.73;;;18.17;;
3427;SDS011;1727;42.624;23.406;2023-03-05T13:36:36;27.00;;;15.63;;
3427;SDS011;1727;42.624;23.406;2023-03-05T13:39:04;21.83;;;14.23;;
3427;SDS011;1727;42.624;23.406;2023-03-05T13:41:31;23.00;;;16.53;;
3427;SDS011;1727;42.624;23.406;2023-03-05T13:43:59;30.33;;;19.47;;
3427;SDS011;1727;42.624;23.406;2023-03-05T13:46:30;23.80;;;15.33;;
3427;SDS011;1727;42.624;23.406;2023-03-05T13:51:44;19.10;;;12.73;;
3427;SDS011;1727;42.624;23.406;2023-03-05T13:54:13;34.57;;;15.43;;
3427;SDS011;1727;42.624;23.406;2023-03-05T13:56:47;28.97;;;17.70;;
3427;SDS011;1727;42.624;23.406;2023-03-05T13:59:16;28.47;;;16.23;;
3427;SDS011;1727;42.624;23.406;2023-03-05T14:01:45;22.10;;;14.37;;
3427;SDS011;1727;42.624;23.406;2023-03-05T14:04:18;25.33;;;16.50;;
3427;SDS011;1727;42.624;23.406;2023-03-05T14:06:47;26.10;;;16.60;;
3427;SDS011;1727;42.624;23.406;2023-03-05T14:09:18;27.33;;;16.93;;
3427;SDS011;1727;42.624;23.406;2023-03-05T14:11:57;28.00;;;16.77;;
3427;SDS011;1727;42.624;23.406;2023-03-05T14:14:28;29.17;;;16.30;;
3427;SDS011;1727;42.624;23.406;2023-03-05T14:19:49;25.13;;;14.43;;
3427;SDS011;1727;42.624;23.406;2023-03-05T14:22:29;23.63;;;14.30;;
3427;SDS011;1727;42.624;23.406;2023-03-05T14:24:58;24.60;;;14.37;;
3427;SDS011;1727;42.624;23.406;2023-03-05T14:27:33;21.50;;;13.33;;
3427;SDS011;1727;42.624;23.406;2023-03-05T14:30:02;23.23;;;15.30;;
3427;SDS011;1727;42.624;23.406;2023-03-05T14:32:31;24.77;;;15.80;;
3427;SDS011;1727;42.624;23.406;2023-03-05T14:35:01;25.90;;;16.83;;
3427;SDS011;1727;42.624;23.406;2023-03-05T14:37:31;27.30;;;15.77;;
3427;SDS011;1727;42.624;23.406;2023-03-05T14:40:01;26.07;;;15.83;;
3427;SDS011;1727;42.624;23.406;2023-03-05T14:42:32;28.13;;;17.03;;
3427;SDS011;1727;42.624;23.406;2023-03-05T14:45:00;38.87;;;18.10;;
3427;SDS011;1727;42.624;23.406;2023-03-05T14:47:38;36.70;;;22.93;;
3427;SDS011;1727;42.624;23.406;2023-03-05T14:50:05;39.45;;;26.67;;
3427;SDS011;1727;42.624;23.406;2023-03-05T14:52:33;24.70;;;16.67;;
3427;SDS011;1727;42.624;23.406;2023-03-05T14:55:00;41.63;;;20.27;;
3427;SDS011;1727;42.624;23.406;2023-03-05T14:57:27;33.90;;;19.07;;
3427;SDS011;1727;42.624;23.406;2023-03-05T14:59:57;28.73;;;18.03;;
3427;SDS011;1727;42.624;23.406;2023-03-05T15:02:24;30.17;;;17.10;;
3427;SDS011;1727;42.624;23.406;2023-03-05T15:04:53;29.00;;;17.10;;
3427;SDS011;1727;42.624;23.406;2023-03-05T15:07:22;42.93;;;22.20;;
3427;SDS011;1727;42.624;23.406;2023-03-05T15:09:53;34.30;;;21.50;;